createdAt,value
2017-11-01T00:02:07.398Z,7.20
2017-11-01T00:04:35.525Z,7.30
2017-11-01T00:07:03.464Z,7.30
2017-11-01T00:09:30.966Z,7.30
2017-11-01T00:11:59.251Z,7.30
2017-11-01T00:14:27.519Z,7.20
2017-11-01T00:16:55.809Z,7.20
2017-11-01T00:19:24.079Z,7.20
2017-11-01T00:21:52.363Z,7.30
2017-11-01T00:24:20.631Z,7.30
2017-11-01T00:26:48.916Z,7.30
2017-11-01T00:29:16.434Z,7.30
2017-11-01T00:31:44.486Z,7.30
2017-11-01T00:34:11.987Z,7.30
2017-11-01T00:36:40.247Z,7.30
2017-11-01T00:39:07.838Z,7.30
2017-11-01T00:41:35.344Z,7.30
2017-11-01T00:44:02.863Z,7.20
2017-11-01T00:46:30.429Z,7.20
2017-11-01T00:48:57.965Z,7.30
2017-11-01T00:51:26.239Z,7.20
2017-11-01T00:53:54.529Z,7.20
2017-11-01T00:56:22.093Z,7.20
2017-11-01T00:58:49.648Z,7.30
2017-11-01T01:01:17.154Z,7.30
2017-11-01T01:03:44.762Z,7.30
2017-11-01T01:06:12.266Z,7.30
2017-11-01T01:08:39.787Z,7.10
2017-11-01T01:11:07.339Z,7.20
2017-11-01T01:13:34.858Z,7.20
2017-11-01T01:16:02.359Z,7.20
2017-11-01T01:18:29.875Z,7.20
2017-11-01T01:20:57.370Z,7.20
2017-11-01T01:23:24.881Z,7.30
2017-11-01T01:25:53.924Z,7.40
2017-11-01T01:28:21.490Z,7.40
2017-11-01T01:30:49.011Z,7.40
2017-11-01T01:33:16.608Z,7.30
2017-11-01T01:35:44.132Z,7.30
2017-11-01T01:38:12.398Z,7.50
2017-11-01T01:40:39.915Z,7.40
2017-11-01T01:43:07.455Z,7.40
2017-11-01T01:45:34.974Z,7.50
2017-11-01T01:48:02.479Z,7.40
2017-11-01T01:50:30.007Z,7.50
2017-11-01T01:52:58.294Z,7.50
2017-11-01T01:55:25.816Z,7.50
2017-11-01T01:57:53.319Z,7.50
2017-11-01T02:00:20.843Z,7.50
2017-11-01T02:02:49.111Z,7.50
2017-11-01T02:05:16.707Z,7.50
2017-11-01T02:07:44.210Z,7.50
2017-11-01T02:10:11.731Z,7.50
2017-11-01T02:12:39.239Z,7.40
2017-11-01T02:15:06.848Z,7.40
2017-11-01T02:17:34.351Z,7.40
2017-11-01T02:20:01.871Z,7.40
2017-11-01T02:22:29.395Z,7.40
2017-11-01T02:24:57.682Z,7.30
2017-11-01T02:27:25.943Z,7.30
2017-11-01T02:29:54.222Z,7.40
2017-11-01T02:32:22.499Z,7.40
2017-11-01T02:34:50.793Z,7.40
2017-11-01T02:37:18.291Z,7.40
2017-11-01T02:39:45.808Z,7.40
2017-11-01T02:42:13.831Z,7.40
2017-11-01T02:44:41.334Z,7.40
2017-11-01T02:47:08.859Z,7.30
2017-11-01T02:49:36.372Z,7.40
2017-11-01T02:52:03.908Z,7.40
2017-11-01T02:54:31.420Z,7.30
2017-11-01T02:56:58.936Z,7.30
2017-11-01T02:59:26.443Z,7.20
2017-11-01T03:01:54.009Z,7.20
2017-11-01T03:04:22.295Z,7.30
2017-11-01T03:06:49.819Z,7.30
2017-11-01T03:09:17.327Z,7.40
2017-11-01T03:11:45.614Z,7.40
2017-11-01T03:14:13.688Z,7.40
2017-11-01T03:16:41.255Z,7.50
2017-11-01T03:19:08.763Z,7.50
2017-11-01T03:21:36.284Z,7.40
2017-11-01T03:24:03.814Z,7.50
2017-11-01T03:26:31.334Z,7.40
2017-11-01T03:28:58.834Z,7.40
2017-11-01T03:31:26.346Z,7.40
2017-11-01T03:33:53.847Z,7.50
2017-11-01T03:36:21.407Z,7.50
2017-11-01T03:38:48.898Z,7.50
2017-11-01T03:41:16.416Z,7.40
2017-11-01T03:43:43.934Z,7.40
2017-11-01T03:46:11.539Z,7.40
2017-11-01T03:48:39.040Z,7.40
2017-11-01T03:51:06.560Z,7.40
2017-11-01T03:53:34.062Z,7.50
2017-11-01T03:56:01.575Z,7.50
2017-11-01T03:58:29.075Z,7.50
2017-11-01T04:00:56.611Z,7.50
2017-11-01T04:03:24.106Z,7.50
2017-11-01T04:05:51.607Z,7.50
2017-11-01T04:08:19.159Z,7.50
2017-11-01T04:10:46.721Z,7.30
2017-11-01T04:13:14.300Z,7.40
2017-11-01T04:15:41.803Z,7.40
2017-11-01T04:18:15.123Z,7.40
2017-11-01T04:20:43.410Z,7.40
2017-11-01T04:23:10.927Z,7.40
2017-11-01T04:25:38.423Z,7.40
2017-11-01T04:28:05.939Z,7.40
2017-11-01T04:30:33.438Z,7.30
2017-11-01T04:33:00.955Z,7.40
2017-11-01T04:35:28.455Z,7.50
2017-11-01T04:37:56.011Z,7.50
2017-11-01T04:40:23.507Z,7.50
2017-11-01T04:42:51.032Z,7.50
2017-11-01T04:45:18.529Z,7.60
2017-11-01T04:47:46.043Z,7.60
2017-11-01T04:50:13.555Z,7.60
2017-11-01T04:52:41.072Z,7.60
2017-11-01T04:55:12.471Z,7.60
2017-11-01T04:57:40.902Z,7.60
2017-11-01T05:00:08.395Z,7.60
2017-11-01T05:02:35.911Z,7.60
2017-11-01T05:05:10.035Z,7.60
2017-11-01T05:07:37.571Z,7.60
2017-11-01T05:10:05.077Z,7.60
2017-11-01T05:12:38.358Z,7.60
2017-11-01T05:15:05.862Z,7.70
2017-11-01T05:17:34.164Z,7.70
2017-11-01T05:20:01.691Z,7.70
2017-11-01T05:22:29.275Z,7.70
2017-11-01T05:24:59.606Z,7.70
2017-11-01T05:27:29.675Z,7.70
2017-11-01T05:29:57.200Z,7.60
2017-11-01T05:32:24.695Z,7.60
2017-11-01T05:34:52.290Z,7.60
2017-11-01T05:37:20.546Z,7.60
2017-11-01T05:39:48.831Z,7.70
2017-11-01T05:42:17.090Z,7.60
2017-11-01T05:44:44.611Z,7.60
2017-11-01T05:47:12.106Z,7.60
2017-11-01T05:49:39.630Z,7.60
2017-11-01T05:52:07.127Z,7.60
2017-11-01T05:54:35.410Z,7.60
2017-11-01T05:57:03.679Z,7.60
2017-11-01T05:59:31.963Z,7.60
2017-11-01T06:02:00.255Z,7.60
2017-11-01T06:04:27.778Z,7.60
2017-11-01T06:06:55.275Z,7.60
2017-11-01T06:09:22.799Z,7.60
2017-11-01T06:11:50.303Z,7.60
2017-11-01T06:14:17.870Z,7.70
2017-11-01T06:16:45.366Z,7.70
2017-11-01T06:19:12.884Z,7.70
2017-11-01T06:21:40.379Z,7.70
2017-11-01T06:24:07.979Z,7.70
2017-11-01T06:26:35.479Z,7.70
2017-11-01T06:29:03.011Z,7.60
2017-11-01T06:31:30.506Z,7.50
2017-11-01T06:33:58.003Z,7.60
2017-11-01T06:36:26.390Z,7.60
2017-11-01T06:38:53.951Z,7.60
2017-11-01T06:41:21.467Z,7.60
2017-11-01T06:43:49.779Z,7.60
2017-11-01T06:46:17.293Z,7.70
2017-11-01T06:48:44.793Z,7.70
2017-11-01T06:51:13.179Z,7.80
2017-11-01T06:53:40.674Z,7.70
2017-11-01T06:56:08.196Z,7.80
2017-11-01T06:58:35.750Z,7.80
2017-11-01T07:01:03.311Z,7.90
2017-11-01T07:03:30.874Z,7.80
2017-11-01T07:05:58.407Z,7.80
2017-11-01T07:08:27.454Z,7.80
2017-11-01T07:10:55.933Z,7.80
2017-11-01T07:13:23.432Z,7.80
2017-11-01T07:15:51.028Z,7.70
2017-11-01T07:18:18.531Z,7.70
2017-11-01T07:20:46.050Z,7.70
2017-11-01T07:23:13.571Z,7.70
2017-11-01T07:25:41.854Z,7.70
2017-11-01T07:28:10.125Z,7.80
2017-11-01T07:30:38.432Z,7.80
2017-11-01T07:33:05.934Z,7.80
2017-11-01T07:35:33.439Z,7.90
2017-11-01T07:38:00.962Z,7.90
2017-11-01T07:40:28.475Z,8.00
2017-11-01T07:42:56.010Z,8.00
2017-11-01T07:45:23.510Z,8.00
2017-11-01T07:47:51.027Z,8.00
2017-11-01T07:50:18.587Z,8.00
2017-11-01T07:52:46.098Z,8.00
2017-11-01T07:55:13.940Z,8.00
2017-11-01T07:57:41.463Z,8.00
2017-11-01T08:00:08.979Z,7.90
2017-11-01T08:02:36.499Z,7.90
2017-11-01T08:05:04.002Z,8.00
2017-11-01T08:07:31.811Z,8.10
2017-11-01T08:09:59.381Z,8.20
2017-11-01T08:12:26.898Z,8.30
2017-11-01T08:14:55.216Z,8.30
2017-11-01T08:17:23.254Z,8.30
2017-11-01T08:19:51.523Z,8.50
2017-11-01T08:22:19.816Z,8.60
2017-11-01T08:24:47.387Z,8.60
2017-11-01T08:27:14.910Z,8.60
2017-11-01T08:29:42.414Z,8.70
2017-11-01T08:32:09.936Z,8.80
2017-11-01T08:34:38.207Z,8.90
2017-11-01T08:37:06.510Z,8.90
2017-11-01T08:39:34.023Z,8.90
2017-11-01T08:42:01.583Z,9.00
2017-11-01T08:44:29.082Z,9.00
2017-11-01T08:46:56.608Z,9.10
2017-11-01T08:49:24.118Z,9.10
2017-11-01T08:51:51.622Z,9.10
2017-11-01T08:54:19.147Z,9.20
2017-11-01T08:56:46.650Z,9.30
2017-11-01T08:59:14.934Z,9.40
2017-11-01T09:01:43.203Z,9.40
2017-11-01T09:04:11.494Z,9.40
2017-11-01T09:06:39.175Z,9.40
2017-11-01T09:09:06.694Z,9.50
2017-11-01T09:11:34.961Z,9.60
2017-11-01T09:14:02.482Z,9.60
2017-11-01T09:16:29.979Z,9.60
2017-11-01T09:18:57.494Z,9.70
2017-11-01T09:21:24.994Z,9.70
2017-11-01T09:23:52.516Z,9.70
2017-11-01T09:26:20.015Z,9.60
2017-11-01T09:28:47.550Z,9.60
2017-11-01T09:31:15.051Z,9.60
2017-11-01T09:33:43.334Z,9.60
2017-11-01T09:36:10.834Z,9.60
2017-11-01T09:38:38.434Z,9.60
2017-11-01T09:41:06.707Z,9.70
2017-11-01T09:43:35.012Z,9.70
2017-11-01T09:46:02.519Z,9.70
2017-11-01T09:48:30.026Z,9.70
2017-11-01T09:50:57.579Z,9.80
2017-11-01T09:53:25.082Z,9.80
2017-11-01T09:55:52.834Z,9.80
2017-11-01T09:58:20.475Z,9.80
2017-11-01T10:00:48.016Z,9.80
2017-11-01T10:03:15.535Z,9.80
2017-11-01T10:05:43.135Z,9.90
2017-11-01T10:08:10.636Z,9.80
2017-11-01T10:10:38.156Z,9.90
2017-11-01T10:13:05.655Z,9.90
2017-11-01T10:15:33.175Z,9.90
2017-11-01T10:18:00.680Z,10.00
2017-11-01T10:20:28.289Z,10.10
2017-11-01T10:22:55.796Z,10.10
2017-11-01T10:25:23.336Z,10.10
2017-11-01T10:27:50.865Z,10.20
2017-11-01T10:30:18.388Z,10.20
2017-11-01T10:32:46.669Z,10.20
2017-11-01T10:35:14.962Z,10.20
2017-11-01T10:37:43.240Z,10.10
2017-11-01T10:40:11.734Z,10.20
2017-11-01T10:42:39.291Z,10.10
2017-11-01T10:45:06.815Z,10.10
2017-11-01T10:47:34.323Z,10.20
2017-11-01T10:50:01.851Z,10.20
2017-11-01T10:52:30.126Z,10.30
2017-11-01T10:54:58.727Z,10.40
2017-11-01T10:57:26.236Z,10.40
2017-11-01T10:59:53.759Z,10.40
2017-11-01T11:02:21.271Z,10.50
2017-11-01T11:04:49.585Z,10.50
2017-11-01T11:07:17.155Z,10.50
2017-11-01T11:09:44.686Z,10.50
2017-11-01T11:12:12.215Z,10.50
2017-11-01T11:14:39.723Z,10.60
2017-11-01T11:17:07.250Z,10.60
2017-11-01T11:19:35.530Z,10.60
2017-11-01T11:22:03.824Z,10.50
2017-11-01T11:24:31.331Z,10.50
2017-11-01T11:26:58.854Z,10.60
2017-11-01T11:29:26.368Z,10.60
2017-11-01T11:31:54.658Z,10.60
2017-11-01T11:34:22.166Z,10.60
2017-11-01T11:36:49.695Z,10.70
2017-11-01T11:39:17.203Z,10.60
2017-11-01T11:41:44.726Z,10.60
2017-11-01T11:44:12.228Z,10.60
2017-11-01T11:46:40.618Z,10.60
2017-11-01T11:49:08.887Z,10.60
2017-11-01T11:51:37.195Z,10.60
2017-11-01T11:54:04.707Z,10.60
2017-11-01T11:56:32.215Z,10.60
2017-11-01T11:58:59.738Z,10.60
2017-11-01T12:01:28.007Z,10.60
2017-11-01T12:03:55.527Z,10.60
2017-11-01T12:06:23.047Z,10.60
2017-11-01T12:08:50.579Z,10.60
2017-11-01T12:11:18.092Z,10.70
2017-11-01T12:13:45.626Z,10.70
2017-11-01T12:16:13.135Z,10.70
2017-11-01T12:18:40.659Z,10.70
2017-11-01T12:21:08.191Z,10.80
2017-11-01T12:23:35.715Z,10.80
2017-11-01T12:26:03.231Z,10.80
2017-11-01T12:28:30.787Z,10.90
2017-11-01T12:30:58.784Z,10.90
2017-11-01T12:33:26.403Z,10.90
2017-11-01T12:35:53.971Z,11.00
2017-11-01T12:38:21.498Z,11.00
2017-11-01T12:40:49.771Z,11.10
2017-11-01T12:43:18.063Z,11.10
2017-11-01T12:45:46.334Z,11.20
2017-11-01T12:48:14.623Z,11.20
2017-11-01T12:50:42.183Z,11.20
2017-11-01T12:53:09.693Z,11.20
2017-11-01T12:55:37.219Z,11.30
2017-11-01T12:58:04.730Z,11.30
2017-11-01T13:00:33.036Z,11.30
2017-11-01T13:03:00.551Z,11.30
2017-11-01T13:05:28.844Z,11.40
2017-11-01T13:07:57.223Z,11.50
2017-11-01T13:10:25.512Z,11.50
2017-11-01T13:12:53.028Z,11.50
2017-11-01T13:15:20.547Z,11.60
2017-11-01T13:17:48.051Z,11.60
2017-11-01T13:20:15.588Z,11.70
2017-11-01T13:22:43.124Z,11.70
2017-11-01T13:25:10.638Z,11.70
2017-11-01T13:27:38.144Z,11.80
2017-11-01T13:30:05.693Z,11.80
2017-11-01T13:32:33.199Z,11.90
2017-11-01T13:35:00.803Z,11.90
2017-11-01T13:37:28.311Z,11.90
2017-11-01T13:39:55.843Z,11.90
2017-11-01T13:42:23.379Z,12.00
2017-11-01T13:44:50.891Z,12.00
2017-11-01T13:47:18.416Z,12.00
2017-11-01T13:49:45.954Z,12.10
2017-11-01T13:52:13.470Z,12.10
2017-11-01T13:54:40.978Z,12.10
2017-11-01T13:57:08.532Z,12.10
2017-11-01T13:59:36.091Z,12.10
2017-11-01T14:02:03.651Z,12.10
2017-11-01T14:04:31.211Z,12.20
2017-11-01T14:06:58.766Z,12.10
2017-11-01T14:09:26.275Z,12.20
2017-11-01T14:11:54.297Z,12.20
2017-11-01T14:14:21.804Z,12.20
2017-11-01T14:16:49.328Z,12.20
2017-11-01T14:19:16.823Z,12.30
2017-11-01T14:21:44.348Z,12.30
2017-11-01T14:24:11.884Z,12.30
2017-11-01T14:26:39.443Z,12.30
2017-11-01T14:29:06.942Z,12.30
2017-11-01T14:31:34.458Z,12.30
2017-11-01T14:34:01.969Z,12.30
2017-11-01T14:36:29.482Z,12.30
2017-11-01T14:38:57.027Z,12.30
2017-11-01T14:41:24.543Z,12.30
2017-11-01T14:43:52.454Z,12.30
2017-11-01T14:46:19.982Z,12.30
2017-11-01T14:48:47.487Z,12.30
2017-11-01T14:51:14.987Z,12.40
2017-11-01T14:53:42.507Z,12.30
2017-11-01T14:56:10.047Z,12.30
2017-11-01T14:58:37.563Z,12.30
2017-11-01T15:01:05.067Z,12.30
2017-11-01T15:03:32.627Z,12.30
2017-11-01T15:06:00.131Z,12.30
2017-11-01T15:08:27.651Z,12.30
2017-11-01T15:10:55.150Z,12.40
2017-11-01T15:13:22.675Z,12.40
2017-11-01T15:15:50.186Z,12.40
2017-11-01T15:18:18.471Z,12.30
2017-11-01T15:20:46.742Z,12.30
2017-11-01T15:23:15.031Z,12.30
2017-11-01T15:25:43.304Z,12.20
2017-11-01T15:28:10.833Z,12.20
2017-11-01T15:30:38.334Z,12.20
2017-11-01T15:33:05.856Z,12.20
2017-11-01T15:35:33.359Z,12.10
2017-11-01T15:38:00.888Z,12.10
2017-11-01T15:40:29.158Z,12.00
2017-11-01T15:42:57.464Z,12.00
2017-11-01T15:45:24.971Z,12.00
2017-11-01T15:47:52.495Z,11.90
2017-11-01T15:50:19.998Z,11.90
2017-11-01T15:52:47.535Z,11.90
2017-11-01T15:55:15.046Z,11.70
2017-11-01T15:57:42.583Z,11.70
2017-11-01T16:00:10.859Z,11.60
2017-11-01T16:02:39.163Z,11.60
2017-11-01T16:05:06.820Z,11.50
2017-11-01T16:07:34.322Z,11.50
2017-11-01T16:10:01.844Z,11.40
2017-11-01T16:12:29.346Z,11.30
2017-11-01T16:14:56.871Z,11.30
2017-11-01T16:17:24.367Z,11.20
2017-11-01T16:19:51.889Z,11.20
2017-11-01T16:22:19.404Z,11.10
2017-11-01T16:24:47.807Z,10.90
2017-11-01T16:27:15.364Z,10.90
2017-11-01T16:29:42.886Z,10.90
2017-11-01T16:32:10.391Z,10.80
2017-11-01T16:34:37.948Z,10.70
2017-11-01T16:37:05.446Z,10.70
2017-11-01T16:39:32.967Z,10.60
2017-11-01T16:42:00.478Z,10.50
2017-11-01T16:44:28.427Z,10.50
2017-11-01T16:46:56.702Z,10.30
2017-11-01T16:49:24.222Z,10.40
2017-11-01T16:51:51.740Z,10.30
2017-11-01T16:54:19.322Z,10.20
2017-11-01T16:56:47.099Z,10.20
2017-11-01T16:59:14.642Z,10.20
2017-11-01T17:01:42.911Z,10.10
2017-11-01T17:04:11.183Z,10.00
2017-11-01T17:06:39.470Z,9.90
2017-11-01T17:09:06.970Z,9.90
2017-11-01T17:11:34.496Z,9.90
2017-11-01T17:14:02.004Z,9.80
2017-11-01T17:16:29.520Z,9.80
2017-11-01T17:18:57.023Z,9.70
2017-11-01T17:21:24.550Z,9.70
2017-11-01T17:23:52.042Z,9.70
2017-11-01T17:26:19.552Z,9.70
2017-11-01T17:28:47.059Z,9.70
2017-11-01T17:31:14.583Z,9.60
2017-11-01T17:33:42.087Z,9.60
2017-11-01T17:36:10.401Z,9.60
2017-11-01T17:38:38.155Z,9.60
2017-11-01T17:41:05.739Z,9.50
2017-11-01T17:43:33.242Z,9.40
2017-11-01T17:46:00.761Z,9.40
2017-11-01T17:48:28.267Z,9.30
2017-11-01T17:50:56.567Z,9.30
2017-11-01T17:53:24.122Z,9.30
2017-11-01T17:55:51.647Z,9.20
2017-11-01T17:58:19.974Z,9.20
2017-11-01T18:00:47.514Z,9.20
2017-11-01T18:03:15.019Z,9.10
2017-11-01T18:05:42.519Z,9.10
2017-11-01T18:08:10.811Z,9.10
2017-11-01T18:10:38.311Z,9.10
2017-11-01T18:13:05.832Z,9.10
2017-11-01T18:15:33.327Z,9.00
2017-11-01T18:18:00.852Z,9.00
2017-11-01T18:20:28.356Z,9.00
2017-11-01T18:22:55.927Z,9.00
2017-11-01T18:25:23.423Z,9.00
2017-11-01T18:27:50.986Z,9.00
2017-11-01T18:30:18.527Z,9.00
2017-11-01T18:32:46.039Z,8.90
2017-11-01T18:35:13.535Z,8.90
2017-11-01T18:37:41.827Z,8.80
2017-11-01T18:40:09.326Z,8.70
2017-11-01T18:42:36.931Z,8.80
2017-11-01T18:45:04.431Z,8.80
2017-11-01T18:47:32.054Z,8.80
2017-11-01T18:49:59.554Z,8.70
2017-11-01T18:52:27.075Z,8.70
2017-11-01T18:54:54.704Z,8.70
2017-11-01T18:57:22.220Z,8.60
2017-11-01T18:59:49.719Z,8.50
2017-11-01T19:02:17.264Z,8.50
2017-11-01T19:04:44.763Z,8.60
2017-11-01T19:07:12.264Z,8.60
2017-11-01T19:09:39.795Z,8.50
2017-11-01T19:12:07.297Z,8.50
2017-11-01T19:14:34.818Z,8.50
2017-11-01T19:17:02.319Z,8.50
2017-11-01T19:19:31.555Z,8.30
2017-11-01T19:21:59.058Z,8.30
2017-11-01T19:24:26.585Z,8.30
2017-11-01T19:26:54.094Z,8.20
2017-11-01T19:29:21.616Z,8.20
2017-11-01T19:31:49.119Z,8.20
2017-11-01T19:34:17.407Z,8.20
2017-11-01T19:36:45.698Z,8.30
2017-11-01T19:39:13.220Z,8.30
2017-11-01T19:41:40.724Z,8.30
2017-11-01T19:44:08.243Z,8.30
2017-11-01T19:46:36.514Z,8.20
2017-11-01T19:49:04.056Z,8.20
2017-11-01T19:51:31.560Z,8.30
2017-11-01T19:53:59.072Z,8.20
2017-11-01T19:56:27.463Z,8.10
2017-11-01T19:58:54.968Z,8.10
2017-11-01T20:01:22.478Z,8.10
2017-11-01T20:03:49.983Z,8.10
2017-11-01T20:06:17.510Z,8.10
2017-11-01T20:08:45.779Z,8.00
2017-11-01T20:11:14.075Z,7.90
2017-11-01T20:13:41.579Z,7.90
2017-11-01T20:16:09.100Z,7.90
2017-11-01T20:18:36.608Z,8.00
2017-11-01T20:21:04.216Z,8.00
2017-11-01T20:23:31.731Z,8.00
2017-11-01T20:25:59.246Z,8.00
2017-11-01T20:28:26.752Z,7.90
2017-11-01T20:30:54.276Z,7.80
2017-11-01T20:33:21.779Z,7.80
2017-11-01T20:35:50.071Z,7.90
2017-11-01T20:38:18.342Z,7.90
2017-11-01T20:40:46.655Z,7.90
2017-11-01T20:43:14.158Z,7.90
2017-11-01T20:45:41.687Z,8.00
2017-11-01T20:48:09.200Z,7.90
2017-11-01T20:50:36.735Z,7.90
2017-11-01T20:53:04.249Z,7.90
2017-11-01T20:55:31.823Z,7.90
2017-11-01T20:57:59.326Z,7.90
2017-11-01T21:00:27.719Z,7.70
2017-11-01T21:02:55.227Z,7.70
2017-11-01T21:05:22.758Z,7.70
2017-11-01T21:07:50.253Z,7.80
2017-11-01T21:10:17.747Z,7.80
2017-11-01T21:12:45.259Z,7.80
2017-11-01T21:15:12.765Z,7.80
2017-11-01T21:17:40.287Z,7.80
2017-11-01T21:20:07.787Z,7.90
2017-11-01T21:22:35.303Z,7.90
2017-11-01T21:25:02.812Z,7.90
2017-11-01T21:27:30.335Z,7.90
2017-11-01T21:29:58.602Z,7.90
2017-11-01T21:32:26.124Z,7.80
2017-11-01T21:34:53.623Z,7.80
2017-11-01T21:37:21.923Z,7.70
2017-11-01T21:39:49.431Z,7.70
2017-11-01T21:42:17.034Z,7.60
2017-11-01T21:44:44.539Z,7.50
2017-11-01T21:47:12.797Z,7.50
2017-11-01T21:49:40.302Z,7.60
2017-11-01T21:52:08.608Z,7.70
2017-11-01T21:54:36.106Z,7.70
2017-11-01T21:57:03.623Z,7.70
2017-11-01T21:59:31.140Z,7.70
2017-11-01T22:01:58.667Z,7.70
2017-11-01T22:04:26.179Z,7.80
2017-11-01T22:06:54.583Z,7.80
2017-11-01T22:09:22.090Z,7.80
2017-11-01T22:11:49.626Z,7.80
2017-11-01T22:14:17.131Z,7.80
2017-11-01T22:16:45.400Z,7.80
2017-11-01T22:19:13.686Z,7.70
2017-11-01T22:21:41.954Z,7.60
2017-11-01T22:24:10.247Z,7.50
2017-11-01T22:26:37.750Z,7.50
2017-11-01T22:29:05.827Z,7.50
2017-11-01T22:31:33.602Z,7.60
2017-11-01T22:34:01.907Z,7.60
2017-11-01T22:36:30.178Z,7.60
2017-11-01T22:38:58.466Z,7.60
2017-11-01T22:41:26.843Z,7.70
2017-11-01T22:43:55.155Z,7.70
2017-11-01T22:46:22.686Z,7.60
2017-11-01T22:48:50.207Z,7.70
2017-11-01T22:51:17.812Z,7.70
2017-11-01T22:53:45.370Z,7.70
2017-11-01T22:56:12.875Z,7.70
2017-11-01T22:58:40.399Z,7.80
2017-11-01T23:01:07.904Z,7.80
2017-11-01T23:03:35.424Z,7.80
2017-11-01T23:06:03.299Z,7.80
2017-11-01T23:08:30.824Z,7.80
2017-11-01T23:10:58.331Z,7.70
2017-11-01T23:13:25.940Z,7.60
2017-11-01T23:15:53.446Z,7.60
2017-11-01T23:18:20.967Z,7.50
2017-11-01T23:20:48.486Z,7.30
2017-11-01T23:23:16.759Z,7.40
2017-11-01T23:25:44.359Z,7.40
2017-11-01T23:28:11.907Z,7.50
2017-11-01T23:30:39.426Z,7.50
2017-11-01T23:33:06.940Z,7.60
2017-11-01T23:35:34.458Z,7.60
2017-11-01T23:38:02.731Z,7.50
2017-11-01T23:40:31.034Z,7.50
2017-11-01T23:42:58.948Z,7.50
2017-11-01T23:45:27.239Z,7.20
2017-11-01T23:47:54.744Z,7.20
2017-11-01T23:50:22.267Z,7.20
2017-11-01T23:52:50.530Z,7.10
2017-11-01T23:55:18.058Z,7.10
2017-11-01T23:57:45.567Z,7.20
